Time;durP1;ratioP1;P1;durP2;ratioP2;P2;SDS_P1;SDS_P2;PMS_P1;PMS_P2;Temp;Humidity;BMP_temperature;BMP_pressure;BME280_temperature;BME280_humidity;BME280_pressure;Samples;Min_cycle;Max_cycle;Signal;HPM_P1;HPM_P2
2022/11/15 17:45:54;;;;;;;71.30;31.30;;;;;;;6.03;86.47;99787.77;98975;1267;2120367;-69
2022/11/15 17:49:15;;;;;;;71.80;31.10;;;;;;;6.00;86.51;99781.48;99708;1287;98331;-70
2022/11/15 17:52:36;;;;;;;57.50;28.00;;;;;;;5.97;86.39;99777.04;99674;1289;138289;-69
2022/11/15 17:56:03;;;;;;;58.50;28.10;;;;;;;5.91;86.24;99774.92;99874;1283;97720;-69
2022/11/15 17:59:25;;;;;;;56.60;28.50;;;;;;;5.87;86.46;99772.04;99736;1298;137920;-69
2022/11/15 18:02:47;;;;;;;63.80;33.00;;;;;;;5.84;86.66;99767.96;99768;1291;108909;-70
2022/11/15 18:06:10;;;;;;;57.40;27.50;;;;;;;5.86;86.58;99765.50;99727;1281;138034;-70
2022/11/15 18:09:31;;;;;;;53.70;26.70;;;;;;;5.87;86.68;99764.61;99742;1281;107455;-69
2022/11/15 18:12:53;;;;;;;52.90;26.30;;;;;;;5.86;86.62;99765.32;99731;1288;97820;-69
2022/11/15 18:16:18;;;;;;;54.30;25.90;;;;;;;5.88;86.68;99762.86;99695;1291;138442;-72
2022/11/15 18:19:40;;;;;;;48.10;23.80;;;;;;;5.90;86.69;99762.67;99687;1291;108909;-69
2022/11/15 18:23:01;;;;;;;53.30;26.50;;;;;;;5.92;86.90;99760.05;99758;1292;138275;-71
2022/11/15 18:26:26;;;;;;;50.20;24.60;;;;;;;5.92;86.68;99754.02;99831;1285;107098;-69
2022/11/15 18:29:48;;;;;;;51.50;24.60;;;;;;;5.94;86.77;99759.50;99643;1297;138235;-72
2022/11/15 18:33:09;;;;;;;51.20;25.10;;;;;;;5.94;86.60;99762.61;99751;1292;109975;-70
2022/11/15 18:36:35;;;;;;;47.30;24.00;;;;;;;5.93;86.56;99765.39;99757;1298;106738;-70
2022/11/15 18:39:56;;;;;;;50.50;24.60;;;;;;;5.93;86.69;99767.80;99824;1289;98322;-71
2022/11/15 18:43:18;;;;;;;52.90;25.30;;;;;;;5.95;86.66;99764.65;99837;1296;107325;-71
2022/11/15 18:46:39;;;;;;;45.40;23.30;;;;;;;5.96;86.60;99761.52;99740;1289;138258;-70
2022/11/15 18:50:01;;;;;;;47.90;24.80;;;;;;;5.95;86.22;99760.00;99930;1289;111114;-71
2022/11/15 18:53:22;;;;;;;52.30;24.80;;;;;;;5.93;86.36;99760.91;99766;1289;138035;-71
2022/11/15 18:56:44;;;;;;;45.80;22.70;;;;;;;5.91;86.51;99759.55;99881;1290;97854;-70
2022/11/15 19:00:09;;;;;;;46.40;23.80;;;;;;;5.92;86.33;99762.46;99806;1298;138303;-71
2022/11/15 19:03:35;;;;;;;42.80;23.10;;;;;;;5.92;86.29;99761.79;101463;1297;96710;-72
2022/11/15 19:06:56;;;;;;;43.50;22.60;;;;;;;5.88;86.12;99758.89;97753;1292;111403;-70
2022/11/15 19:10:17;;;;;;;47.10;23.60;;;;;;;5.85;86.16;99758.44;101361;1295;138809;-70
2022/11/15 19:13:39;;;;;;;44.10;22.00;;;;;;;5.81;85.89;99759.76;101462;1296;110495;-69
2022/11/15 19:17:00;;;;;;;48.90;22.60;;;;;;;5.71;85.93;99764.94;101303;1291;138528;-70
2022/11/15 19:20:21;;;;;;;36.40;19.40;;;;;;;5.64;85.97;99766.64;101472;1291;97052;-71
2022/11/15 19:23:43;;;;;;;36.10;20.00;;;;;;;5.63;86.03;99764.25;101380;1297;141078;-70
2022/11/15 19:27:04;;;;;;;34.60;19.20;;;;;;;5.61;86.06;99762.56;101436;1297;96100;-71
2022/11/15 19:30:25;;;;;;;37.90;19.70;;;;;;;5.62;86.19;99762.20;101412;1288;138736;-72
2022/11/15 19:33:47;;;;;;;39.30;20.80;;;;;;;5.64;86.23;99754.73;101515;1292;108106;-71
2022/11/15 19:37:08;;;;;;;39.40;21.00;;;;;;;5.68;86.09;99753.95;101514;1288;95947;-71
2022/11/15 19:40:30;;;;;;;42.40;22.90;;;;;;;5.70;86.23;99753.73;101364;1281;138512;-69
2022/11/15 19:43:52;;;;;;;45.60;26.60;;;;;;;5.73;86.27;99750.92;101506;1297;95820;-70
2022/11/15 19:47:13;;;;;;;40.00;22.10;;;;;;;5.78;86.34;99747.92;101294;1282;138307;-72
2022/11/15 19:50:36;;;;;;;37.30;20.10;;;;;;;5.79;86.25;99737.72;101248;1284;108524;-71
2022/11/15 19:54:00;;;;;;;40.70;19.90;;;;;;;5.78;86.05;99733.77;101364;1296;138537;-71
2022/11/15 19:57:21;;;;;;;34.00;18.20;;;;;;;5.77;85.90;99736.04;101399;1289;107942;-71
2022/11/15 20:00:42;;;;;;;33.80;18.80;;;;;;;5.77;85.87;99740.34;101456;1296;95816;-72
2022/11/15 20:04:04;;;;;;;32.60;18.40;;;;;;;5.78;85.85;99744.98;101382;1296;111153;-71
2022/11/15 20:07:25;;;;;;;31.30;18.00;;;;;;;5.78;85.79;99738.06;101407;1289;107494;-72
2022/11/15 20:10:47;;;;;;;31.90;17.40;;;;;;;5.79;85.32;99733.05;101270;1297;139716;-71
2022/11/15 20:14:10;;;;;;;28.80;17.60;;;;;;;5.79;85.14;99730.64;101355;1296;106693;-71
2022/11/15 20:17:31;;;;;;;31.80;18.20;;;;;;;5.77;85.10;99732.23;101321;1297;137898;-70
2022/11/15 20:20:54;;;;;;;32.50;19.30;;;;;;;5.76;85.26;99735.52;101485;1286;109492;-69
2022/11/15 20:24:15;;;;;;;34.90;18.60;;;;;;;5.72;85.07;99736.11;101309;1296;137783;-69
2022/11/15 20:27:36;;;;;;;33.10;17.10;;;;;;;5.67;85.15;99732.26;101510;1292;95965;-69
2022/11/15 20:30:59;;;;;;;27.40;15.80;;;;;;;5.62;85.22;99729.62;101418;1296;108064;-67
2022/11/15 20:34:21;;;;;;;26.60;16.20;;;;;;;5.62;85.35;99733.92;101455;1295;95969;-68
2022/11/15 20:37:42;;;;;;;29.90;16.20;;;;;;;5.62;85.43;99734.45;101459;1296;111099;-69
2022/11/15 20:41:03;;;;;;;33.40;18.20;;;;;;;5.65;85.47;99731.96;101313;1288;139251;-69
2022/11/15 20:44:28;;;;;;;30.30;17.40;;;;;;;5.68;85.69;99728.27;101421;1289;96185;-68
2022/11/15 20:47:49;;;;;;;32.50;18.30;;;;;;;5.72;85.53;99728.69;101287;1285;138282;-69
2022/11/15 20:51:14;;;;;;;32.30;19.00;;;;;;;5.73;85.49;99732.27;101330;1284;95658;-68
2022/11/15 20:54:35;;;;;;;31.60;17.60;;;;;;;5.71;85.46;99736.30;101263;1284;137545;-68
2022/11/15 20:57:57;;;;;;;29.00;17.10;;;;;;;5.71;85.28;99734.58;100540;1282;108059;-68
2022/11/15 21:01:22;;;;;;;26.10;15.70;;;;;;;5.72;85.34;99728.86;99751;1281;98488;-68
2022/11/15 21:04:43;;;;;;;27.60;15.50;;;;;;;5.70;84.98;99720.98;99809;1291;138495;-69
2022/11/15 21:08:05;;;;;;;30.20;15.90;;;;;;;5.69;84.97;99713.41;99802;1291;97894;-68
2022/11/15 21:15:07;;;;;;;24.50;15.80;;;;;;;5.67;85.28;99722.25;100617;1294;106046;-68
2022/11/15 21:18:29;;;;;;;27.30;16.50;;;;;;;5.66;85.33;99727.45;99799;1291;138065;-68
2022/11/15 21:21:50;;;;;;;27.40;16.30;;;;;;;5.63;85.08;99722.52;99833;1305;107678;-70
2022/11/15 21:25:12;;;;;;;28.60;16.80;;;;;;;5.59;85.46;99716.56;99966;1298;97915;-70
2022/11/15 21:28:33;;;;;;;32.40;17.00;;;;;;;5.57;85.48;99714.19;99881;1289;114068;-70
2022/11/15 21:31:55;;;;;;;27.20;15.90;;;;;;;5.57;85.71;99715.56;99904;1291;108014;-71
2022/11/15 21:35:17;;;;;;;27.00;15.10;;;;;;;5.57;85.60;99708.33;99839;1297;138426;-71
2022/11/15 21:38:39;;;;;;;29.10;15.80;;;;;;;5.57;85.58;99705.39;99917;1289;106284;-71
2022/11/15 21:42:00;;;;;;;26.00;14.80;;;;;;;5.54;85.72;99701.11;99761;1281;138863;-71
2022/11/15 21:45:22;;;;;;;23.00;14.20;;;;;;;5.57;85.55;99687.81;99825;1287;109696;-71
2022/11/15 21:48:43;;;;;;;22.20;12.60;;;;;;;5.58;85.51;99691.07;99742;1291;138282;-71
2022/11/15 21:52:05;;;;;;;19.60;11.40;;;;;;;5.57;85.33;99692.29;99924;1291;97820;-70
2022/11/15 21:55:27;;;;;;;17.80;10.10;;;;;;;5.55;84.93;99693.01;99907;1291;106142;-70
2022/11/15 21:58:48;;;;;;;18.70;10.90;;;;;;;5.46;84.83;99684.58;99809;1290;137938;-71
2022/11/15 22:02:14;;;;;;;19.70;11.70;;;;;;;5.35;84.99;99681.51;99906;1291;111390;-71
2022/11/15 22:05:35;;;;;;;19.80;10.40;;;;;;;5.25;85.15;99680.52;99767;1289;137336;-71
2022/11/15 22:08:57;;;;;;;20.10;11.30;;;;;;;5.21;85.58;99675.95;99937;1273;98676;-71
2022/11/15 22:12:18;;;;;;;19.00;11.10;;;;;;;5.20;85.67;99685.60;99707;1289;138069;-71
2022/11/15 22:15:40;;;;;;;19.80;11.50;;;;;;;5.21;85.99;99684.90;99871;1298;97910;-71
2022/11/15 22:19:01;;;;;;;19.80;11.30;;;;;;;5.24;85.91;99668.31;99707;1287;137642;-71
2022/11/15 22:22:23;;;;;;;20.20;11.80;;;;;;;5.26;86.05;99663.27;99704;1281;108866;-71
2022/11/15 22:25:45;;;;;;;22.20;11.80;;;;;;;5.27;86.21;99657.88;99835;1281;97896;-71
2022/11/15 22:29:06;;;;;;;23.80;12.30;;;;;;;5.32;86.48;99656.06;99767;1289;137901;-71
2022/11/15 22:32:28;;;;;;;21.30;12.70;;;;;;;5.35;86.90;99652.20;99844;1291;97711;-71
2022/11/15 22:35:49;;;;;;;24.30;12.80;;;;;;;5.38;86.67;99644.73;99664;1282;138693;-70
2022/11/15 22:39:11;;;;;;;25.20;13.90;;;;;;;5.41;86.57;99638.99;99841;1288;108065;-70
2022/11/15 22:42:33;;;;;;;23.70;13.40;;;;;;;5.42;86.45;99639.66;99811;1281;138244;-70
